Time;durP1;ratioP1;P1;durP2;ratioP2;P2;SDS_P1;SDS_P2;PMS_P1;PMS_P2;Temp;Humidity;BMP_temperature;BMP_pressure;BME280_temperature;BME280_humidity;BME280_pressure;Samples;Min_cycle;Max_cycle;Signal;HPM_P1;HPM_P2
2023/11/02 00:00:29;;;;;;;0.00;0.00;;;;;;;9.75;100.00;95682.25;4798841;29;20030;-82
2023/11/02 00:02:57;;;;;;;0.00;0.00;;;;;;;9.26;100.00;95652.19;4896601;29;20102;-80
2023/11/02 00:05:53;;;;;;;0.00;0.00;;;;;;;9.25;100.00;95666.97;4878470;29;20545;-81
2023/11/02 00:08:56;;;;;;;0.00;0.00;;;;;;;8.58;100.00;95634.31;4893012;29;20036;-84
2023/11/02 00:12:15;;;;;;;0.00;0.00;;;;;;;8.80;100.00;95679.69;4879825;29;20048;-86
2023/11/02 00:18:22;;;;;;;0.00;0.00;;;;;;;7.90;100.00;95541.66;4851398;29;20438;-86
2023/11/02 00:20:58;;;;;;;0.00;0.00;;;;;;;8.08;100.00;95569.88;4845993;29;20143;-82
2023/11/02 00:23:39;;;;;;;0.00;0.00;;;;;;;7.66;100.00;95549.09;4857657;29;20062;-87
2023/11/02 00:26:25;;;;;;;0.00;0.00;;;;;;;7.57;100.00;95524.09;4859224;29;20089;-85
2023/11/02 00:28:56;;;;;;;0.00;0.00;;;;;;;7.61;100.00;95535.81;4861544;29;20499;-83
2023/11/02 00:31:21;;;;;;;0.00;0.00;;;;;;;7.34;100.00;95489.59;4857445;29;20040;-81
2023/11/02 00:33:54;;;;;;;0.05;0.05;;;;;;;7.40;100.00;95465.63;4858491;29;20050;-81
2023/11/02 00:37:19;;;;;;;0.00;0.00;;;;;;;7.38;100.00;95419.78;4849099;29;20808;-81
2023/11/02 00:40:14;;;;;;;;;;;;;;;;;;;;;
2023/11/02 00:43:02;;;;;;;;;;;;;;;;;;;;;
2023/11/02 00:45:41;;;;;;;0.00;0.00;;;;;;;8.33;100.00;95477.66;4869962;29;20040;-81
2023/11/02 00:48:41;;;;;;;0.00;0.00;;;;;;;8.30;100.00;95458.59;4889969;29;20040;-83
2023/11/02 00:51:34;;;;;;;;;;;;;;;;;;;;;
2023/11/02 00:57:37;;;;;;;0.00;0.00;;;;;;;7.95;100.00;95375.44;4882000;29;20044;-81
2023/11/02 01:00:45;;;;;;;0.00;0.00;;;;;;;8.15;100.00;95390.41;4863251;29;20037;-81
2023/11/02 01:04:05;;;;;;;;;;;;;;;;;;;;;
2023/11/02 01:06:49;;;;;;;0.00;0.00;;;;;;;8.32;100.00;95427.13;4890690;29;20476;-80
2023/11/02 01:09:54;;;;;;;0.00;0.00;;;;;;;8.40;100.00;95438.88;4893525;29;20475;-79
2023/11/02 01:12:36;;;;;;;0.00;0.00;;;;;;;8.36;100.00;95422.50;4887174;29;20083;-80
2023/11/02 01:15:05;;;;;;;0.00;0.00;;;;;;;8.27;100.00;95421.25;4889355;29;20028;-79
2023/11/02 01:21:39;;;;;;;0.00;0.00;;;;;;;8.17;100.00;95328.25;4813959;29;20034;-79
2023/11/02 01:27:35;;;;;;;0.00;0.00;;;;;;;8.17;100.00;95322.03;4823597;29;20117;-82
2023/11/02 01:30:12;;;;;;;0.00;0.00;;;;;;;7.83;100.00;95265.75;4807244;29;20053;-82
2023/11/02 01:32:38;;;;;;;0.00;0.00;;;;;;;7.63;100.00;95237.22;4855070;29;20129;-83
2023/11/02 01:35:35;;;;;;;0.00;0.00;;;;;;;7.63;100.00;95245.38;4895836;29;20111;-82
2023/11/02 01:38:03;;;;;;;0.00;0.00;;;;;;;7.77;100.00;95242.81;4884949;29;20514;-81
2023/11/02 01:40:58;;;;;;;0.00;0.00;;;;;;;8.09;100.00;95296.72;4900779;28;20057;-80
2023/11/02 01:44:07;;;;;;;;;;;;;;;;;;;;;
2023/11/02 01:47:20;;;;;;;0.00;0.00;;;;;;;7.74;100.00;95208.22;4909715;29;20035;-81
2023/11/02 01:56:55;;;;;;;0.00;0.00;;;;;;;7.86;100.00;95172.56;4835512;29;20049;-81
2023/11/02 02:00:04;;;;;;;0.00;0.00;;;;;;;7.70;100.00;95131.28;4849863;29;20029;-81
2023/11/02 02:03:26;;;;;;;0.00;0.00;;;;;;;7.95;100.00;95147.00;4851222;29;20055;-81
2023/11/02 02:06:19;;;;;;;0.00;0.00;;;;;;;7.71;100.00;95083.91;4891402;29;20023;-81
2023/11/02 02:09:35;;;;;;;0.00;0.00;;;;;;;8.05;100.00;95108.22;4915131;29;20032;-81
2023/11/02 02:12:21;;;;;;;0.00;0.00;;;;;;;7.74;100.00;95034.22;4905248;29;20111;-81
2023/11/02 02:15:05;;;;;;;0.08;0.08;;;;;;;7.86;100.00;95047.47;4902535;29;20471;-82
2023/11/02 02:17:49;;;;;;;0.00;0.00;;;;;;;7.88;100.00;95038.94;4905645;29;20032;-82
2023/11/02 02:20:38;;;;;;;0.00;0.00;;;;;;;7.85;100.00;95017.97;4893484;29;20139;-82
2023/11/02 02:23:33;;;;;;;0.00;0.00;;;;;;;8.18;100.00;95038.72;4907604;29;20116;-82
2023/11/02 02:26:34;;;;;;;0.00;0.00;;;;;;;7.88;100.00;94981.06;4902074;29;20086;-82
2023/11/02 02:29:18;;;;;;;0.00;0.00;;;;;;;8.06;100.00;95022.75;4871489;29;20032;-81
2023/11/02 02:32:24;;;;;;;0.00;0.00;;;;;;;8.05;100.00;95007.56;4914151;29;20043;-81
2023/11/02 02:35:52;;;;;;;;;;;;;;;;;;;;;
2023/11/02 02:38:39;;;;;;;0.00;0.00;;;;;;;8.05;100.00;94955.91;4905352;29;21229;-80
2023/11/02 02:41:19;;;;;;;;;;;;;;;;;;;;;
2023/11/02 02:44:06;;;;;;;;;;;;;;;;;;;;;
2023/11/02 02:46:34;;;;;;;0.00;0.00;;;;;;;8.19;100.00;94912.44;4906917;29;20040;-80
2023/11/02 02:48:59;;;;;;;0.00;0.00;;;;;;;8.29;100.00;94894.53;4909992;29;20020;-81
2023/11/02 02:51:29;;;;;;;0.00;0.00;;;;;;;8.29;100.00;94866.56;4887232;29;20028;-79
2023/11/02 02:54:17;;;;;;;0.00;0.00;;;;;;;8.24;100.00;94845.22;4922205;29;20118;-79
2023/11/02 02:56:47;;;;;;;0.00;0.00;;;;;;;7.99;100.00;94802.44;4917501;29;20032;-78
2023/11/02 02:59:50;;;;;;;;;;;;;;;;;;;;;
2023/11/02 03:02:21;;;;;;;0.00;0.00;;;;;;;8.22;100.00;94799.34;4909287;29;20109;-80
2023/11/02 03:04:48;;;;;;;0.00;0.00;;;;;;;8.29;100.00;94793.13;4918556;29;20023;-80
2023/11/02 03:07:16;;;;;;;0.00;0.00;;;;;;;8.25;100.00;94771.38;4904019;29;20028;-80
2023/11/02 03:09:45;;;;;;;0.00;0.00;;;;;;;8.39;100.00;94790.38;4911023;29;20021;-79
2023/11/02 03:12:18;;;;;;;0.00;0.00;;;;;;;8.28;100.00;94761.63;4905853;29;20023;-79
2023/11/02 03:15:04;;;;;;;0.00;0.00;;;;;;;8.34;100.00;94751.94;4892841;29;20239;-78
2023/11/02 03:17:50;;;;;;;0.00;0.00;;;;;;;8.52;100.00;94760.84;4889768;29;20028;-78
2023/11/02 03:20:17;;;;;;;0.00;0.00;;;;;;;8.48;100.00;94760.09;4924270;29;20430;-78
2023/11/02 03:22:48;;;;;;;0.00;0.00;;;;;;;8.10;100.00;94691.69;4922472;29;20043;-81
2023/11/02 03:25:32;;;;;;;0.00;0.00;;;;;;;8.58;100.00;94741.41;4912060;29;20028;-82
2023/11/02 03:28:17;;;;;;;;;;;;;;;;;;;;;
2023/11/02 03:31:11;;;;;;;0.00;0.00;;;;;;;8.27;100.00;94662.91;4918143;29;20595;-82
2023/11/02 03:33:39;;;;;;;0.00;0.00;;;;;;;8.62;100.00;94696.69;4899939;29;20091;-78
2023/11/02 03:36:16;;;;;;;0.00;0.00;;;;;;;8.68;100.00;94686.19;4906484;29;20036;-76
2023/11/02 03:38:54;;;;;;;0.00;0.00;;;;;;;8.68;100.00;94658.94;4920498;29;20036;-79
2023/11/02 03:41:47;;;;;;;;;;;;;;;;;;;;;
2023/11/02 03:44:37;;;;;;;0.00;0.00;;;;;;;8.65;100.00;94610.75;4909659;29;20043;-79
2023/11/02 03:47:15;;;;;;;0.00;0.00;;;;;;;8.72;100.00;94594.38;4909060;29;20044;-79
2023/11/02 03:49:55;;;;;;;0.00;0.00;;;;;;;8.69;100.00;94576.13;4913905;29;20064;-78
2023/11/02 03:52:38;;;;;;;0.00;0.00;;;;;;;8.95;100.00;94591.16;4901272;29;20062;-78
2023/11/02 03:55:06;;;;;;;0.00;0.00;;;;;;;8.98;100.00;94578.66;4912992;29;20046;-79
2023/11/02 03:57:46;;;;;;;0.00;0.00;;;;;;;8.82;100.00;94539.09;4911661;29;20024;-79
2023/11/02 04:00:15;;;;;;;0.00;0.00;;;;;;;8.80;100.00;94535.97;4910424;29;20451;-78
2023/11/02 04:02:59;;;;;;;;;;;;;;;;;;;;;
2023/11/02 04:05:35;;;;;;;0.10;0.10;;;;;;;8.67;100.00;94483.16;4914022;29;20027;-82
2023/11/02 04:08:20;;;;;;;0.00;0.00;;;;;;;8.78;100.00;94483.88;4907669;29;20043;-81
2023/11/02 04:11:20;;;;;;;;;;;;;;;;;;;;;
2023/11/02 04:14:25;;;;;;;0.00;0.00;;;;;;;9.22;100.00;94512.34;4910978;29;20479;-80
2023/11/02 04:16:51;;;;;;;0.00;0.00;;;;;;;9.20;100.00;94492.91;4887835;29;20044;-81
2023/11/02 04:19:17;;;;;;;0.00;0.00;;;;;;;9.37;100.00;94495.88;4901946;29;20036;-81
2023/11/02 04:21:42;;;;;;;0.00;0.00;;;;;;;9.17;100.00;94454.78;4909635;29;20116;-80
2023/11/02 04:24:08;;;;;;;0.00;0.00;;;;;;;9.36;100.00;94464.34;4919438;29;20079;-80
2023/11/02 04:26:34;;;;;;;0.00;0.00;;;;;;;9.41;100.00;94447.56;4895643;29;20118;-81
2023/11/02 04:28:59;;;;;;;0.00;0.00;;;;;;;9.26;100.00;94419.69;4906178;29;20019;-80
2023/11/02 04:31:27;;;;;;;0.00;0.00;;;;;;;9.46;100.00;94444.41;4908802;29;20032;-80
2023/11/02 04:33:53;;;;;;;0.00;0.00;;;;;;;9.51;100.00;94435.78;4908222;29;20043;-79
2023/11/02 04:36:18;;;;;;;0.00;0.00;;;;;;;9.56;100.00;94427.19;4912173;29;20551;-79
2023/11/02 04:38:54;;;;;;;;;;;;;;;;;;;;;
2023/11/02 04:41:20;;;;;;;0.00;0.00;;;;;;;9.66;100.00;94408.38;4910660;29;20078;-79
2023/11/02 04:43:53;;;;;;;0.00;0.00;;;;;;;9.61;100.00;94391.28;4890165;29;20479;-78
2023/11/02 04:46:19;;;;;;;0.00;0.00;;;;;;;9.72;100.00;94390.38;4907034;29;20060;-78
2023/11/02 04:48:47;;;;;;;0.00;0.00;;;;;;;9.94;100.00;94409.97;4922664;29;20035;-78
2023/11/02 04:51:23;;;;;;;0.00;0.00;;;;;;;9.98;100.00;94415.41;4889255;29;20078;-79
2023/11/02 04:53:51;;;;;;;0.00;0.00;;;;;;;9.85;100.00;94371.53;4912499;29;20036;-79
2023/11/02 04:56:27;;;;;;;0.00;0.00;;;;;;;9.75;100.00;94356.84;4904418;29;20421;-76
2023/11/02 04:59:23;;;;;;;;;;;;;;;;;;;;;
2023/11/02 05:02:25;;;;;;;;;;;;;;;;;;;;;
2023/11/02 05:04:50;;;;;;;0.00;0.00;;;;;;;9.80;100.00;94345.50;4889042;29;20050;-82
2023/11/02 05:07:19;;;;;;;0.00;0.00;;;;;;;9.91;100.00;94354.28;4893772;29;20028;-84
2023/11/02 05:09:45;;;;;;;0.00;0.00;;;;;;;10.02;100.00;94364.31;4907491;29;20387;-80
2023/11/02 05:12:12;;;;;;;0.00;0.00;;;;;;;9.93;100.00;94335.59;4896376;29;20028;-81
2023/11/02 05:14:38;;;;;;;0.00;0.00;;;;;;;10.07;100.00;94350.19;4892577;29;20741;-80
2023/11/02 05:17:03;;;;;;;0.10;0.10;;;;;;;10.21;100.00;94350.00;4900347;29;20032;-80
2023/11/02 05:19:29;;;;;;;0.00;0.00;;;;;;;10.15;100.00;94335.28;4911091;29;20032;-82
2023/11/02 05:21:54;;;;;;;0.00;0.00;;;;;;;10.09;100.00;94320.53;4911190;29;20834;-80
2023/11/02 05:24:20;;;;;;;0.00;0.00;;;;;;;10.28;100.00;94338.22;4898066;29;20087;-79
2023/11/02 05:26:48;;;;;;;0.00;0.00;;;;;;;10.22;100.00;94329.72;4881165;29;20020;-80
2023/11/02 05:29:23;;;;;;;0.00;0.00;;;;;;;10.27;100.00;94326.53;4894809;29;20472;-80
2023/11/02 05:31:52;;;;;;;0.05;0.05;;;;;;;10.37;100.00;94335.00;4912226;29;20054;-80
2023/11/02 05:34:17;;;;;;;0.00;0.00;;;;;;;10.26;100.00;94319.50;4913262;29;20028;-79
2023/11/02 05:36:43;;;;;;;0.00;0.00;;;;;;;10.47;100.00;94350.44;4906784;29;20034;-78
2023/11/02 05:39:08;;;;;;;0.00;0.00;;;;;;;10.53;100.00;94356.97;4911315;29;20035;-79
2023/11/02 05:41:36;;;;;;;0.00;0.00;;;;;;;10.33;100.00;94323.34;4878071;29;20056;-77
2023/11/02 05:44:02;;;;;;;0.00;0.00;;;;;;;10.41;100.00;94336.50;4915539;29;20036;-78
2023/11/02 05:46:29;;;;;;;0.00;0.00;;;;;;;10.46;100.00;94343.44;4888864;29;20028;-78
2023/11/02 05:48:55;;;;;;;0.00;0.00;;;;;;;10.38;100.00;94337.31;4909871;29;20028;-79
2023/11/02 05:51:20;;;;;;;0.00;0.00;;;;;;;10.53;100.00;94351.53;4905908;29;20020;-79
2023/11/02 05:53:49;;;;;;;0.00;0.00;;;;;;;10.44;100.00;94340.31;4914910;29;20032;-82
2023/11/02 05:56:25;;;;;;;0.00;0.00;;;;;;;10.40;100.00;94336.91;4915180;29;20126;-84
2023/11/02 05:58:53;;;;;;;0.00;0.00;;;;;;;10.46;100.00;94344.19;4901888;29;20040;-82
2023/11/02 06:01:28;;;;;;;0.00;0.00;;;;;;;10.36;100.00;94333.47;4892045;29;20027;-83
2023/11/02 06:03:53;;;;;;;0.10;0.10;;;;;;;10.33;100.00;94334.25;4893317;29;20028;-83
2023/11/02 06:06:20;;;;;;;0.00;0.00;;;;;;;10.39;100.00;94354.47;4909071;29;20028;-83
2023/11/02 06:08:46;;;;;;;0.00;0.00;;;;;;;10.40;100.00;94354.03;4908566;29;20393;-82
2023/11/02 06:11:11;;;;;;;0.00;0.00;;;;;;;10.34;100.00;94342.06;4911072;29;20038;-79
2023/11/02 06:14:24;;;;;;;0.00;0.00;;;;;;;10.51;100.00;94367.53;4894843;29;20032;-80
2023/11/02 06:16:50;;;;;;;0.00;0.00;;;;;;;10.22;100.00;94332.47;4889684;29;20431;-82
2023/11/02 06:19:15;;;;;;;0.00;0.00;;;;;;;10.19;100.00;94336.00;4912230;29;20036;-80
2023/11/02 06:21:41;;;;;;;0.00;0.00;;;;;;;10.41;100.00;94384.84;4905309;29;20025;-80
2023/11/02 06:25:24;;;;;;;0.00;0.00;;;;;;;10.05;100.00;94330.75;4908430;29;20028;-81
2023/11/02 06:31:25;;;;;;;0.00;0.00;;;;;;;9.81;100.00;94325.22;4845851;29;20125;-84
2023/11/02 06:33:51;;;;;;;0.00;0.00;;;;;;;9.81;100.00;94333.38;4864587;29;20492;-82
2023/11/02 06:36:16;;;;;;;0.00;0.00;;;;;;;9.91;100.00;94373.38;4917130;29;20107;-84
2023/11/02 06:38:42;;;;;;;0.03;0.03;;;;;;;9.85;100.00;94363.34;4910208;29;20483;-82
2023/11/02 06:41:08;;;;;;;0.00;0.00;;;;;;;9.77;100.00;94355.25;4919056;28;20064;-79
2023/11/02 06:47:01;;;;;;;0.00;0.00;;;;;;;9.96;100.00;94426.72;4911811;29;20028;-84
2023/11/02 06:53:03;;;;;;;0.00;0.00;;;;;;;9.48;100.00;94384.81;4883442;29;20048;-81
2023/11/02 06:55:29;;;;;;;0.00;0.00;;;;;;;9.64;100.00;94405.28;4915858;29;20028;-83
2023/11/02 06:57:54;;;;;;;0.00;0.00;;;;;;;9.91;100.00;94449.75;4896407;29;20050;-79
2023/11/02 07:00:20;;;;;;;0.00;0.00;;;;;;;9.75;100.00;94433.19;4923600;29;20043;-79
2023/11/02 07:02:45;;;;;;;0.00;0.00;;;;;;;9.89;100.00;94468.50;4907241;29;20035;-78
2023/11/02 07:05:11;;;;;;;0.00;0.00;;;;;;;9.80;100.00;94462.75;4901430;29;20430;-77
2023/11/02 07:07:49;;;;;;;;;;;;;;;;;;;;;
2023/11/02 07:10:32;;;;;;;0.00;0.00;;;;;;;9.67;100.00;94461.75;4895553;29;20016;-80
2023/11/02 07:13:03;;;;;;;0.00;0.00;;;;;;;9.86;100.00;94517.63;4905752;29;20115;-78
2023/11/02 07:15:45;;;;;;;0.00;0.00;;;;;;;9.64;100.00;94500.69;4896671;29;20044;-79
2023/11/02 07:18:21;;;;;;;0.00;0.00;;;;;;;9.49;100.00;94494.59;4901641;29;20487;-79
2023/11/02 07:21:32;;;;;;;0.00;0.00;;;;;;;9.82;100.00;94561.28;4911758;29;20543;-79
2023/11/02 07:24:02;;;;;;;0.00;0.00;;;;;;;9.58;100.00;94533.09;4904733;29;20043;-79
2023/11/02 07:26:27;;;;;;;0.00;0.00;;;;;;;9.51;100.00;94536.66;4909044;29;20043;-79
2023/11/02 07:28:53;;;;;;;0.00;0.00;;;;;;;9.68;100.00;94577.78;4915023;29;20036;-80
2023/11/02 07:31:19;;;;;;;0.00;0.00;;;;;;;9.54;100.00;94576.72;4916087;29;20084;-80
2023/11/02 07:33:46;;;;;;;0.00;0.00;;;;;;;9.70;100.00;94597.25;4894841;29;20052;-81
2023/11/02 07:39:28;;;;;;;0.00;0.00;;;;;;;9.72;100.00;94635.78;4866827;29;20049;-80
2023/11/02 07:41:54;;;;;;;0.00;0.00;;;;;;;9.26;100.00;94594.84;4868094;29;20056;-79
2023/11/02 07:44:19;;;;;;;0.00;0.00;;;;;;;9.39;100.00;94641.47;4898523;29;20067;-76
2023/11/02 07:46:45;;;;;;;0.00;0.00;;;;;;;9.33;100.00;94670.34;4910043;29;20394;-75
2023/11/02 07:49:23;;;;;;;;;;;;;;;;;;;;;
2023/11/02 07:51:48;;;;;;;0.00;0.00;;;;;;;9.03;100.00;94679.03;4892681;29;20027;-74
2023/11/02 07:54:49;;;;;;;0.00;0.00;;;;;;;9.16;100.00;94715.56;4895317;29;20028;-74
2023/11/02 07:57:15;;;;;;;0.00;0.00;;;;;;;8.79;100.00;94681.47;4909240;29;20030;-74
2023/11/02 08:00:07;;;;;;;0.00;0.00;;;;;;;8.83;100.00;94708.69;4912471;29;20263;-74
2023/11/02 08:03:38;;;;;;;;;;;;;;;;;;;;;
2023/11/02 08:06:14;;;;;;;;;;;;;;;;;;;;;
2023/11/02 08:09:00;;;;;;;;;;;;;;;;;;;;;
2023/11/02 08:12:25;;;;;;;;;;;;;;;;;;;;;
2023/11/02 08:15:14;;;;;;;0.00;0.00;;;;;;;8.64;100.00;94797.00;4825350;29;20480;-74
2023/11/02 08:19:09;;;;;;;;;;;;;;;;;;;;;
2023/11/02 08:25:11;;;;;;;;;;;;;;;8.98;100.00;94853.75;4816708;29;20042;-74
2023/11/02 08:27:39;;;;;;;0.00;0.00;;;;;;;8.79;100.00;94836.69;4908879;29;19914;-73
2023/11/02 08:30:05;;;;;;;0.00;0.00;;;;;;;9.03;100.00;94869.72;4894612;29;20436;-74
2023/11/02 08:32:48;;;;;;;0.00;0.00;;;;;;;8.84;100.00;94847.16;4890917;29;20043;-74
2023/11/02 08:35:15;;;;;;;0.00;0.00;;;;;;;8.90;100.00;94861.16;4912791;29;20035;-74
2023/11/02 08:37:41;;;;;;;0.00;0.00;;;;;;;8.93;100.00;94889.56;4913094;29;20110;-74
2023/11/02 08:40:12;;;;;;;0.00;0.00;;;;;;;8.80;100.00;94876.34;4891489;29;20055;-75
2023/11/02 08:42:48;;;;;;;0.00;0.00;;;;;;;8.85;100.00;94897.75;4864938;29;20055;-74
2023/11/02 08:45:15;;;;;;;0.00;0.00;;;;;;;8.89;100.00;94912.16;4912425;29;20065;-75
2023/11/02 08:47:43;;;;;;;0.00;0.00;;;;;;;8.89;100.00;94920.31;4896947;29;20031;-75
2023/11/02 08:50:38;;;;;;;0.00;0.00;;;;;;;8.64;100.00;94886.84;4910716;29;20083;-74
2023/11/02 08:53:03;;;;;;;0.00;0.00;;;;;;;8.76;100.00;94938.22;4907443;29;20040;-75
2023/11/02 08:55:29;;;;;;;0.00;0.00;;;;;;;8.62;100.00;94936.25;4908741;29;20035;-75
2023/11/02 09:01:37;;;;;;;0.00;0.00;;;;;;;8.39;100.00;94952.88;4845488;29;20065;-75
2023/11/02 09:04:05;;;;;;;0.00;0.00;;;;;;;8.51;100.00;94993.41;4853631;29;20076;-75
2023/11/02 09:06:39;;;;;;;0.00;0.00;;;;;;;8.36;100.00;94991.75;4850263;29;20040;-74
2023/11/02 09:09:05;;;;;;;;;;;;;;;8.46;100.00;95034.59;4858197;29;20048;-74
2023/11/02 09:11:33;;;;;;;0.00;0.00;;;;;;;8.16;100.00;95002.16;4893761;29;19922;-75
2023/11/02 09:14:01;;;;;;;0.00;0.00;;;;;;;8.16;100.00;95023.94;4877158;29;20036;-74
2023/11/02 09:16:37;;;;;;;0.00;0.00;;;;;;;8.15;100.00;95042.19;4908745;29;20032;-75
2023/11/02 09:19:03;;;;;;;0.00;0.00;;;;;;;8.27;100.00;95062.09;4924631;29;20468;-74
2023/11/02 09:21:30;;;;;;;0.00;0.00;;;;;;;8.25;100.00;95072.56;4909085;29;21068;-73
2023/11/02 09:23:56;;;;;;;0.00;0.00;;;;;;;7.95;100.00;95043.66;4897277;29;20058;-75
2023/11/02 09:26:22;;;;;;;0.00;0.00;;;;;;;8.18;100.00;95090.41;4906988;29;20032;-75
2023/11/02 09:28:49;;;;;;;0.00;0.00;;;;;;;8.14;100.00;95080.66;4903632;29;20024;-75
2023/11/02 09:39:16;;;;;;;0.00;0.00;;;;;;;8.39;100.00;95122.38;4839622;29;20121;-76
2023/11/02 09:43:06;;;;;;;0.00;0.00;;;;;;;8.03;100.00;95072.44;4852524;29;20076;-75
2023/11/02 09:45:32;;;;;;;0.00;0.00;;;;;;;8.32;100.00;95119.66;4794368;29;20094;-75
2023/11/02 09:48:04;;;;;;;0.00;0.00;;;;;;;8.03;100.00;95095.00;4831199;29;20528;-75
2023/11/02 09:50:30;;;;;;;0.00;0.00;;;;;;;8.41;100.00;95149.25;4889440;29;20039;-76
2023/11/02 09:52:56;;;;;;;0.00;0.00;;;;;;;8.29;100.00;95123.09;4904882;29;20386;-75
2023/11/02 09:55:23;;;;;;;0.00;0.00;;;;;;;8.16;100.00;95098.19;4913480;29;20042;-75
2023/11/02 09:57:58;;;;;;;0.00;0.00;;;;;;;8.38;100.00;95142.59;4906531;29;20055;-77
2023/11/02 10:00:34;;;;;;;0.10;0.10;;;;;;;8.40;100.00;95161.28;4911263;29;20035;-76
2023/11/02 10:03:07;;;;;;;0.00;0.00;;;;;;;8.38;100.00;95171.75;4906571;29;20032;-77
2023/11/02 10:09:32;;;;;;;0.00;0.00;;;;;;;8.14;100.00;95133.13;4852273;29;21203;-76
2023/11/02 10:11:58;;;;;;;0.00;0.00;;;;;;;8.35;100.00;95177.94;4844819;29;20553;-75
2023/11/02 10:14:23;;;;;;;0.00;0.00;;;;;;;8.61;100.00;95198.72;4887673;29;20044;-75
2023/11/02 10:16:49;;;;;;;0.00;0.00;;;;;;;8.73;100.00;95200.34;4909133;29;20044;-75
2023/11/02 10:19:21;;;;;;;0.00;0.00;;;;;;;9.15;100.00;95230.91;4907884;29;20032;-75
2023/11/02 10:21:46;;;;;;;0.00;0.00;;;;;;;9.28;100.00;95236.78;4891510;29;20127;-76
2023/11/02 10:24:14;;;;;;;0.00;0.00;;;;;;;9.09;100.00;95203.25;4892987;29;20474;-75
2023/11/02 10:27:41;;;;;;;0.10;0.10;;;;;;;9.49;100.00;95271.50;4891427;29;20130;-74
2023/11/02 10:30:19;;;;;;;0.00;0.00;;;;;;;9.26;100.00;95243.41;4836671;29;20387;-74
2023/11/02 10:32:47;;;;;;;0.00;0.00;;;;;;;9.29;100.00;95243.78;4911537;29;20026;-74
2023/11/02 10:35:12;;;;;;;0.00;0.00;;;;;;;9.39;100.00;95260.19;4894464;29;20024;-75
2023/11/02 10:37:38;;;;;;;0.00;0.00;;;;;;;9.56;100.00;95283.22;4895137;29;20478;-75
2023/11/02 10:40:05;;;;;;;0.00;0.00;;;;;;;9.68;100.00;95281.28;4915532;29;20035;-74
2023/11/02 10:42:39;;;;;;;0.00;0.00;;;;;;;9.82;100.00;95322.25;4912753;29;20047;-75
2023/11/02 10:45:08;;;;;;;0.00;0.00;;;;;;;9.67;100.00;95293.38;4914850;29;20535;-76
2023/11/02 10:48:14;;;;;;;;;;;;;;;;;;;;;
2023/11/02 10:50:50;;;;;;;0.00;0.00;;;;;;;9.55;100.00;95286.31;4919667;29;20028;-76
2023/11/02 10:57:29;;;;;;;0.00;0.00;;;;;;;9.05;100.00;95306.75;4914234;29;20382;-74
2023/11/02 11:00:25;;;;;;;0.00;0.00;;;;;;;8.93;100.00;95325.38;4918748;29;20024;-76
2023/11/02 11:06:19;;;;;;;0.00;0.00;;;;;;;8.48;100.00;95314.53;4905711;29;20031;-76
2023/11/02 11:09:39;;;;;;;0.00;0.00;;;;;;;8.37;100.00;95320.66;4916218;29;20649;-76
2023/11/02 11:12:05;;;;;;;0.00;0.00;;;;;;;8.49;100.00;95335.94;4844918;29;20041;-76
2023/11/02 11:14:38;;;;;;;0.00;0.00;;;;;;;8.60;100.00;95338.75;4836534;29;20047;-74
2023/11/02 11:17:29;;;;;;;0.00;0.00;;;;;;;8.43;100.00;95317.59;4911343;29;20032;-74
2023/11/02 11:19:58;;;;;;;0.00;0.00;;;;;;;8.86;100.00;95370.47;4883121;29;20102;-76
2023/11/02 11:22:30;;;;;;;0.00;0.00;;;;;;;8.86;100.00;95373.19;4910875;29;20027;-78
2023/11/02 11:25:11;;;;;;;0.00;0.00;;;;;;;8.80;100.00;95380.13;4910129;29;20031;-77
2023/11/02 11:28:18;;;;;;;0.00;0.00;;;;;;;8.76;100.00;95382.06;4903701;29;20028;-77
2023/11/02 11:31:10;;;;;;;0.00;0.00;;;;;;;8.35;100.00;95343.94;4894022;29;20044;-76
2023/11/02 11:33:48;;;;;;;0.00;0.00;;;;;;;8.53;100.00;95388.47;4897228;29;20050;-79
2023/11/02 11:36:32;;;;;;;0.00;0.00;;;;;;;8.44;100.00;95401.63;4910631;29;20390;-78
2023/11/02 11:38:58;;;;;;;0.00;0.00;;;;;;;8.58;100.00;95424.69;4910600;29;20115;-79
2023/11/02 11:41:43;;;;;;;0.00;0.00;;;;;;;8.63;100.00;95438.75;4894172;29;20032;-78
2023/11/02 11:44:30;;;;;;;0.00;0.00;;;;;;;8.51;100.00;95442.53;4875783;29;1218829;-76
2023/11/02 11:47:37;;;;;;;;;;;;;;;;;;;;;
2023/11/02 11:50:31;;;;;;;0.00;0.00;;;;;;;8.28;100.00;95433.69;4912049;29;20024;-76
2023/11/02 11:53:42;;;;;;;0.00;0.00;;;;;;;8.43;100.00;95459.91;4908480;29;20492;-77
2023/11/02 11:56:45;;;;;;;0.00;0.00;;;;;;;7.98;100.00;95408.09;4915015;29;20059;-76
2023/11/02 11:59:11;;;;;;;0.00;0.00;;;;;;;8.25;100.00;95465.16;4893233;29;20032;-80
2023/11/02 12:01:37;;;;;;;0.00;0.00;;;;;;;8.21;100.00;95470.53;4916887;29;20039;-75
2023/11/02 12:04:08;;;;;;;0.00;0.00;;;;;;;8.09;100.00;95480.88;4915232;29;20424;-75
2023/11/02 12:07:03;;;;;;;;;;;;;;;;;;;;;
2023/11/02 12:09:40;;;;;;;;;;;;;;;;;;;;;
2023/11/02 12:12:08;;;;;;;0.00;0.00;;;;;;;7.71;100.00;95480.03;4914531;29;20364;-77
2023/11/02 12:14:33;;;;;;;0.00;0.00;;;;;;;7.67;100.00;95490.84;4913588;29;20028;-77
2023/11/02 12:16:59;;;;;;;0.00;0.00;;;;;;;7.65;100.00;95504.00;4891298;29;20825;-75
2023/11/02 12:19:25;;;;;;;0.00;0.00;;;;;;;7.55;100.00;95513.59;4893142;29;20107;-76
2023/11/02 12:21:58;;;;;;;0.00;0.00;;;;;;;7.56;100.00;95525.25;4914221;29;20082;-76
2023/11/02 12:24:23;;;;;;;0.00;0.00;;;;;;;7.58;100.00;95539.25;4894172;29;20083;-76
2023/11/02 12:26:48;;;;;;;0.00;0.00;;;;;;;7.51;100.00;95546.16;4908543;29;20072;-76
2023/11/02 12:29:14;;;;;;;0.00;0.00;;;;;;;7.43;100.00;95536.34;4888152;29;20044;-75
2023/11/02 12:31:43;;;;;;;0.00;0.00;;;;;;;7.55;100.00;95575.31;4912916;29;20024;-76
2023/11/02 12:34:18;;;;;;;0.00;0.00;;;;;;;7.47;100.00;95563.56;4893730;29;20028;-75
2023/11/02 12:36:46;;;;;;;0.00;0.00;;;;;;;7.48;100.00;95576.78;4912474;29;20071;-75
2023/11/02 12:39:21;;;;;;;0.00;0.00;;;;;;;7.42;100.00;95564.66;4901968;29;20033;-77
2023/11/02 12:41:47;;;;;;;0.00;0.00;;;;;;;7.46;100.00;95579.09;4909060;29;20024;-77
2023/11/02 12:44:19;;;;;;;0.10;0.10;;;;;;;7.38;100.00;95610.00;4906611;28;20119;-76
2023/11/02 12:46:48;;;;;;;0.10;0.10;;;;;;;7.45;100.00;95612.84;4910168;29;20028;-77
2023/11/02 12:49:19;;;;;;;0.00;0.00;;;;;;;7.56;100.00;95631.25;4892979;29;20019;-75
2023/11/02 12:51:54;;;;;;;0.00;0.00;;;;;;;7.60;100.00;95653.84;4906281;29;20087;-77
2023/11/02 12:54:21;;;;;;;0.00;0.00;;;;;;;7.43;100.00;95644.25;4901566;29;20418;-76
2023/11/02 12:56:54;;;;;;;0.10;0.10;;;;;;;7.33;100.00;95632.06;4909895;29;20028;-77
2023/11/02 13:06:32;;;;;;;0.00;0.00;;;;;;;7.59;100.00;95693.03;4824472;29;20562;-76
2023/11/02 13:09:35;;;;;;;0.00;0.00;;;;;;;7.04;100.00;95636.97;4843196;29;20083;-77
2023/11/02 13:12:01;;;;;;;0.00;0.00;;;;;;;7.21;100.00;95654.72;4821440;29;20045;-77
2023/11/02 13:14:27;;;;;;;0.00;0.00;;;;;;;7.50;100.00;95715.84;4871329;29;20040;-76
2023/11/02 13:16:55;;;;;;;0.00;0.00;;;;;;;7.31;100.00;95708.47;4907158;29;20027;-76
2023/11/02 13:19:21;;;;;;;0.00;0.00;;;;;;;7.38;100.00;95770.31;4911067;29;20060;-76
2023/11/02 13:21:50;;;;;;;0.10;0.10;;;;;;;7.06;100.00;95705.28;4889042;29;20020;-76
2023/11/02 13:24:16;;;;;;;0.00;0.00;;;;;;;7.12;100.00;95706.56;4910078;29;20027;-76
2023/11/02 13:26:44;;;;;;;0.00;0.00;;;;;;;7.36;100.00;95764.47;4910070;29;20498;-77
2023/11/02 13:29:10;;;;;;;0.00;0.00;;;;;;;7.23;100.00;95747.53;4896337;29;20036;-77
2023/11/02 13:31:37;;;;;;;0.00;0.00;;;;;;;7.37;100.00;95787.00;4909507;29;20084;-76
2023/11/02 13:34:05;;;;;;;0.00;0.00;;;;;;;7.12;100.00;95750.03;4907841;29;20032;-75
2023/11/02 13:36:38;;;;;;;0.00;0.00;;;;;;;7.19;100.00;95773.06;4914189;29;20032;-77
2023/11/02 13:39:10;;;;;;;0.00;0.00;;;;;;;7.04;100.00;95759.19;4903610;29;20038;-76
2023/11/02 13:41:36;;;;;;;0.00;0.00;;;;;;;7.34;100.00;95827.34;4909847;29;20424;-76
2023/11/02 13:44:01;;;;;;;0.00;0.00;;;;;;;7.23;100.00;95785.56;4915236;29;20031;-76
2023/11/02 13:46:28;;;;;;;0.00;0.00;;;;;;;7.24;100.00;95805.38;4911043;28;20048;-76
2023/11/02 13:48:55;;;;;;;0.00;0.00;;;;;;;7.36;100.00;95797.09;4913075;29;20119;-76
2023/11/02 13:51:21;;;;;;;0.00;0.00;;;;;;;7.46;100.00;95807.38;4887596;29;20115;-76
2023/11/02 13:53:49;;;;;;;0.00;0.00;;;;;;;7.46;100.00;95823.69;4904273;29;20028;-76
2023/11/02 13:56:14;;;;;;;0.00;0.00;;;;;;;7.57;100.00;95823.09;4912200;29;20047;-75
2023/11/02 13:58:43;;;;;;;0.00;0.00;;;;;;;7.61;100.00;95830.19;4896949;29;20032;-76
2023/11/02 14:01:09;;;;;;;0.00;0.00;;;;;;;7.82;100.00;95873.31;4887916;29;20028;-75
2023/11/02 14:03:35;;;;;;;0.00;0.00;;;;;;;7.69;100.00;95880.84;4907742;29;20040;-75